createdAt,value
2022-11-16T01:03:12.877Z,1002.94
2022-11-16T01:30:40.966Z,1003.25
2022-11-16T01:59:23.365Z,1003.71
2022-11-16T02:27:58.604Z,1003.51
2022-11-16T03:26:06.194Z,1003.31
2022-11-16T03:54:29.006Z,1003.44
2022-11-16T04:23:26.077Z,1003.55
2022-11-16T04:52:38.125Z,1003.57
2022-11-16T05:21:06.476Z,1003.71
2022-11-16T06:18:27.881Z,1004.06
2022-11-16T06:46:48.661Z,1004.27
2022-11-16T07:15:16.569Z,1004.44
2022-11-16T07:43:36.787Z,1004.64
2022-11-16T08:12:08.371Z,1004.82
2022-11-16T08:40:40.716Z,1004.91
2022-11-16T09:09:25.793Z,1004.85
2022-11-16T11:02:44.215Z,1004.46
2022-11-16T11:31:20.572Z,1004.11
2022-11-16T11:59:46.347Z,1003.89
2022-11-16T12:28:25.531Z,1003.56
2022-11-16T12:57:05.413Z,1003.13
2022-11-16T13:25:25.668Z,1002.92
2022-11-16T14:22:12.871Z,1002.57
2022-11-16T14:50:30.582Z,1002.28
2022-11-16T15:19:02.017Z,1002.09
2022-11-16T15:47:29.481Z,1001.84
2022-11-16T16:15:48.363Z,1001.61
2022-11-16T16:44:08.350Z,1001.53
2022-11-16T17:41:01.027Z,1001.09
2022-11-16T18:09:33.572Z,1000.24
2022-11-16T18:37:41.157Z,999.93
2022-11-16T19:06:15.754Z,1000.29
2022-11-16T19:34:42.257Z,999.56
2022-11-16T20:02:57.219Z,999.8
2022-11-16T20:31:43.331Z,999.63
2022-11-16T21:28:53.457Z,999.55
2022-11-16T21:57:34.582Z,999.23
2022-11-16T22:25:58.032Z,998.57
2022-11-16T22:54:32.758Z,998.13
2022-11-16T23:25:21.664Z,997.72
